Time;durP1;ratioP1;P1;durP2;ratioP2;P2;SDS_P1;SDS_P2;PMS_P1;PMS_P2;Temp;Humidity;BMP_temperature;BMP_pressure;BME280_temperature;BME280_humidity;BME280_pressure;Samples;Min_cycle;Max_cycle;Signal;HPM_P1;HPM_P2
2021/04/13 00:01:26;;;;;;;0.10;0.10;;;;;;;12.63;47.81;100678.72;4947683;28;20074;-77
2021/04/13 00:04:15;;;;;;;0.05;0.05;;;;;;;12.72;48.59;100682.19;4950528;28;20051;-78
2021/04/13 00:07:00;;;;;;;7.18;0.20;;;;;;;12.69;51.38;100688.31;4946896;28;20062;-78
2021/04/13 00:09:47;;;;;;;0.15;0.10;;;;;;;12.88;48.84;100696.06;4934501;28;20522;-79
2021/04/13 00:12:32;;;;;;;0.63;0.20;;;;;;;12.81;49.81;100696.56;4950919;28;20050;-78
2021/04/13 00:15:34;;;;;;;0.75;0.08;;;;;;;12.81;49.35;100691.91;4949041;28;20419;-78
2021/04/13 00:18:28;;;;;;;0.43;0.05;;;;;;;12.74;47.47;100693.59;4947694;28;20051;-77
2021/04/13 00:21:16;;;;;;;0.10;0.10;;;;;;;12.63;47.25;100701.34;4949541;29;20050;-78
2021/04/13 00:24:06;;;;;;;1.25;0.10;;;;;;;12.75;46.52;100706.88;4947391;29;20046;-78
2021/04/13 00:27:00;;;;;;;0.10;0.10;;;;;;;12.74;46.36;100699.03;4932723;29;20054;-78
2021/04/13 00:29:45;;;;;;;0.10;0.10;;;;;;;12.71;46.94;100697.75;4948183;28;20047;-78
2021/04/13 00:32:32;;;;;;;0.00;0.00;;;;;;;12.75;46.39;100698.69;4933451;29;20047;-78
2021/04/13 00:36:08;;;;;;;0.43;0.35;;;;;;;12.79;45.54;100716.03;4952969;29;20059;-78
2021/04/13 00:38:31;;;;;;;0.00;0.00;;;;;;;12.72;46.98;100718.47;4943681;29;20078;-78
2021/04/13 00:41:18;;;;;;;0.40;0.20;;;;;;;12.47;48.03;100713.13;4930969;29;20046;-78
2021/04/13 00:44:07;;;;;;;0.13;0.10;;;;;;;12.62;47.77;100715.31;4952145;29;20051;-77
2021/04/13 00:46:53;;;;;;;0.10;0.10;;;;;;;12.49;47.10;100722.59;4947155;29;20047;-78
2021/04/13 00:49:42;;;;;;;;;;;;;;;12.61;46.99;100722.69;4917117;29;20070;-78
2021/04/13 00:52:49;;;;;;;0.10;0.10;;;;;;;12.70;46.93;100722.63;4948986;29;19915;-78
2021/04/13 00:55:45;;;;;;;0.10;0.10;;;;;;;12.62;47.34;100718.03;4918987;29;20108;-77
2021/04/13 00:58:55;;;;;;;0.85;0.22;;;;;;;12.59;46.31;100727.69;4936332;29;20423;-78
2021/04/13 01:01:52;;;;;;;0.17;0.17;;;;;;;12.57;46.41;100723.66;4948942;28;20054;-77
2021/04/13 01:04:47;;;;;;;1.85;0.10;;;;;;;12.54;46.44;100737.97;4936564;29;20047;-77
2021/04/13 01:07:32;;;;;;;0.10;0.10;;;;;;;12.59;46.70;100735.88;4949472;29;20144;-78
2021/04/13 01:10:30;;;;;;;0.20;0.20;;;;;;;12.66;47.36;100743.53;4946286;29;20415;-77
2021/04/13 01:13:29;;;;;;;1.95;0.10;;;;;;;12.59;48.08;100737.78;4934806;29;20046;-78
2021/04/13 01:16:16;;;;;;;0.17;0.03;;;;;;;12.57;47.30;100738.13;4935319;29;20046;-78
2021/04/13 01:19:12;;;;;;;0.10;0.10;;;;;;;12.51;47.92;100747.59;4950213;29;20046;-78
2021/04/13 01:22:09;;;;;;;0.32;0.10;;;;;;;12.61;48.26;100749.16;4945909;28;20050;-78
2021/04/13 01:25:30;;;;;;;0.47;0.10;;;;;;;12.63;46.92;100745.00;4983261;23;20050;-78
2021/04/13 01:28:20;;;;;;;0.32;0.15;;;;;;;12.77;46.65;100750.22;4957010;28;20423;-79
2021/04/13 01:32:08;;;;;;;0.10;0.10;;;;;;;12.65;47.66;100747.38;4982067;28;20046;-77
2021/04/13 01:34:33;;;;;;;0.75;0.10;;;;;;;12.69;48.25;100757.31;4975719;28;20053;-78
2021/04/13 01:41:01;;;;;;;0.22;0.20;;;;;;;12.56;48.79;100758.34;4954053;28;20055;-79
2021/04/13 01:43:48;;;;;;;0.30;0.10;;;;;;;12.44;50.00;100763.69;4960921;28;20427;-78
2021/04/13 01:46:33;;;;;;;0.10;0.10;;;;;;;12.26;49.88;100767.56;4941088;28;20511;-78
2021/04/13 01:49:18;;;;;;;1.38;0.10;;;;;;;12.32;49.79;100766.28;4953197;29;20074;-79
2021/04/13 01:52:07;;;;;;;;;;;;;;;12.41;49.51;100765.13;4943881;29;20039;-78
2021/04/13 01:54:53;;;;;;;0.10;0.10;;;;;;;12.30;49.98;100768.53;4937516;29;19922;-78
2021/04/13 01:57:48;;;;;;;0.05;0.05;;;;;;;12.29;50.20;100762.25;4951334;28;20054;-78
2021/04/13 02:00:49;;;;;;;0.40;0.10;;;;;;;11.92;51.02;100757.56;4942248;29;20055;-78
2021/04/13 02:04:01;;;;;;;1.20;0.30;;;;;;;12.02;50.73;100762.66;4941375;29;20051;-79
2021/04/13 02:07:13;;;;;;;0.10;0.10;;;;;;;11.91;49.50;100775.03;4941609;29;20047;-78
2021/04/13 02:10:36;;;;;;;1.65;0.20;;;;;;;12.03;51.12;100771.66;4940822;29;20050;-78
2021/04/13 02:13:31;;;;;;;0.47;0.10;;;;;;;11.91;52.06;100773.09;4952778;29;20054;-78
2021/04/13 02:16:24;;;;;;;0.68;0.13;;;;;;;11.92;53.30;100771.97;4940760;29;20051;-78
2021/04/13 02:19:11;;;;;;;1.00;0.15;;;;;;;11.99;53.93;100772.28;4944907;29;20047;-78
2021/04/13 02:22:02;;;;;;;0.68;0.20;;;;;;;12.05;55.63;100772.09;4941295;29;20047;-78
2021/04/13 02:24:51;;;;;;;0.30;0.20;;;;;;;12.05;55.48;100780.28;4923491;29;20050;-78
2021/04/13 02:27:40;;;;;;;0.28;0.20;;;;;;;11.99;56.15;100785.91;4945552;29;20050;-78
2021/04/13 02:30:31;;;;;;;1.20;0.20;;;;;;;11.99;56.21;100785.91;4939182;29;20050;-78
2021/04/13 02:33:29;;;;;;;1.25;0.20;;;;;;;11.91;56.63;100783.19;4956914;28;20046;-78
2021/04/13 02:36:29;;;;;;;0.82;0.40;;;;;;;11.81;57.20;100800.69;4953157;28;20055;-79
2021/04/13 02:39:17;;;;;;;1.33;0.30;;;;;;;11.83;57.63;100798.44;4941166;29;20046;-78
2021/04/13 02:42:26;;;;;;;5.28;0.30;;;;;;;11.68;58.00;100801.63;4942033;29;20050;-78
2021/04/13 02:45:41;;;;;;;0.35;0.20;;;;;;;11.82;58.33;100809.66;4938815;29;20535;-78
2021/04/13 02:48:34;;;;;;;2.65;0.20;;;;;;;11.93;58.42;100814.47;4922012;29;20050;-78
2021/04/13 02:51:22;;;;;;;11.85;1.27;;;;;;;11.99;58.32;100817.81;4953626;28;20047;-78
2021/04/13 02:54:17;;;;;;;0.47;0.20;;;;;;;11.87;58.88;100823.91;4958301;28;20510;-78
2021/04/13 02:57:07;;;;;;;0.37;0.20;;;;;;;11.98;59.46;100827.13;4954069;28;20039;-79
2021/04/13 02:59:58;;;;;;;0.20;0.15;;;;;;;12.10;59.41;100826.44;4941221;29;20066;-78
2021/04/13 03:02:49;;;;;;;0.40;0.30;;;;;;;11.94;59.36;100831.59;4940960;29;20100;-78
2021/04/13 03:05:36;;;;;;;1.98;0.30;;;;;;;11.73;59.97;100825.22;4941117;29;20054;-78
2021/04/13 03:08:23;;;;;;;2.15;0.50;;;;;;;11.69;60.61;100835.88;4951192;29;20050;-78
2021/04/13 03:11:25;;;;;;;1.75;0.30;;;;;;;11.78;60.79;100844.13;4956271;28;20047;-79
2021/04/13 03:14:10;;;;;;;0.30;0.28;;;;;;;11.71;60.96;100841.84;4942193;29;20047;-78
2021/04/13 03:16:57;;;;;;;;;;;;;;;11.68;61.41;100847.94;4938639;29;20050;-79
2021/04/13 03:19:44;;;;;;;0.40;0.40;;;;;;;11.64;61.88;100846.94;4942445;29;19914;-79
2021/04/13 03:22:32;;;;;;;0.50;0.40;;;;;;;11.65;61.99;100845.81;4938399;29;20415;-79
2021/04/13 03:25:17;;;;;;;0.52;0.30;;;;;;;11.68;61.95;100849.84;4953046;28;20050;-78
2021/04/13 03:28:06;;;;;;;4.72;0.52;;;;;;;11.90;61.95;100850.50;4939442;29;20058;-78
2021/04/13 03:30:53;;;;;;;4.20;0.60;;;;;;;11.97;62.08;100847.31;4938764;29;20518;-78
2021/04/13 03:33:39;;;;;;;1.52;0.47;;;;;;;12.20;62.12;100845.19;4955894;28;20046;-79
2021/04/13 03:36:25;;;;;;;0.40;0.38;;;;;;;12.28;62.42;100852.59;4953009;28;20042;-79
2021/04/13 03:39:16;;;;;;;2.63;0.50;;;;;;;12.36;62.32;100854.50;4952684;28;20428;-79
2021/04/13 03:42:02;;;;;;;1.65;0.40;;;;;;;12.41;62.40;100843.41;4941160;28;20066;-78
2021/04/13 03:44:51;;;;;;;2.88;0.52;;;;;;;12.41;62.49;100846.94;4953282;28;20055;-79
2021/04/13 03:47:38;;;;;;;0.55;0.50;;;;;;;12.45;62.52;100844.34;4953444;28;20054;-78
2021/04/13 03:50:29;;;;;;;0.40;0.30;;;;;;;12.47;62.29;100853.03;4948715;29;20063;-78
2021/04/13 03:53:16;;;;;;;0.68;0.40;;;;;;;12.28;62.09;100863.50;4937238;29;20487;-78
2021/04/13 03:56:08;;;;;;;1.02;0.60;;;;;;;12.12;62.39;100860.47;4953197;28;20054;-79
2021/04/13 03:58:58;;;;;;;1.20;0.60;;;;;;;12.15;62.08;100867.19;4947964;28;20042;-78
2021/04/13 04:01:46;;;;;;;1.88;0.60;;;;;;;12.08;62.24;100859.50;4953104;28;20046;-78
2021/04/13 04:04:35;;;;;;;1.23;0.82;;;;;;;12.11;62.54;100868.94;4923994;29;20042;-78
2021/04/13 04:07:31;;;;;;;4.03;0.90;;;;;;;12.10;62.76;100868.16;4939646;29;20050;-79
2021/04/13 04:10:33;;;;;;;1.75;0.60;;;;;;;12.21;62.64;100874.06;4937662;29;20050;-78
2021/04/13 04:13:23;;;;;;;1.50;0.90;;;;;;;12.26;62.56;100860.28;4941723;28;20062;-78
2021/04/13 04:16:29;;;;;;;1.88;0.70;;;;;;;12.35;61.92;100870.03;4938223;29;20043;-78
2021/04/13 04:19:23;;;;;;;2.17;0.80;;;;;;;12.10;62.11;100873.59;4938478;29;20423;-78
2021/04/13 04:22:14;;;;;;;1.63;0.70;;;;;;;12.04;62.25;100883.06;4924934;29;20051;-78
2021/04/13 04:25:24;;;;;;;0.70;0.50;;;;;;;11.89;61.97;100884.34;4951596;28;20050;-78
2021/04/13 04:28:16;;;;;;;1.40;0.65;;;;;;;11.98;61.48;100884.34;4935236;29;20054;-78
2021/04/13 04:31:34;;;;;;;0.80;0.60;;;;;;;11.97;59.46;100882.75;4936161;29;20047;-78
2021/04/13 04:34:19;;;;;;;1.20;0.75;;;;;;;12.02;58.01;100892.69;4956047;29;20050;-78
2021/04/13 04:37:33;;;;;;;0.95;0.60;;;;;;;11.70;56.65;100886.53;4944376;29;20046;-78
2021/04/13 04:40:37;;;;;;;1.00;0.63;;;;;;;11.38;60.54;100906.00;4947592;29;20180;-79
2021/04/13 04:43:45;;;;;;;1.58;1.17;;;;;;;11.27;62.67;100902.78;4952802;29;20046;-79
2021/04/13 04:46:31;;;;;;;1.10;0.75;;;;;;;10.99;63.88;100899.44;4962016;28;20043;-79
2021/04/13 04:49:18;;;;;;;1.40;0.93;;;;;;;11.47;63.12;100904.13;4952288;29;20058;-79
2021/04/13 04:52:03;;;;;;;1.77;1.23;;;;;;;11.55;60.89;100903.31;4939400;29;20066;-79
2021/04/13 04:54:48;;;;;;;2.28;0.85;;;;;;;11.85;59.53;100890.75;4948963;29;20054;-79
2021/04/13 04:57:34;;;;;;;3.92;0.80;;;;;;;12.08;59.43;100896.88;4944764;29;20055;-79
2021/04/13 05:00:19;;;;;;;1.20;0.82;;;;;;;12.23;59.44;100904.56;4946191;29;20054;-79
2021/04/13 05:03:04;;;;;;;6.97;3.88;;;;;;;12.17;59.85;100895.75;4956140;28;20054;-79
2021/04/13 05:05:49;;;;;;;;;;;;;;;12.24;60.66;100901.50;4965580;28;20432;-80
2021/04/13 05:08:34;;;;;;;1.10;0.70;;;;;;;12.31;61.29;100904.53;4943345;29;19914;-79
2021/04/13 05:11:20;;;;;;;3.00;0.50;;;;;;;12.08;59.53;100907.78;4941780;29;20124;-79
2021/04/13 05:14:05;;;;;;;1.02;0.52;;;;;;;12.01;57.73;100905.50;4944505;28;20075;-79
2021/04/13 05:16:52;;;;;;;0.40;0.30;;;;;;;12.27;59.29;100913.69;4962906;28;20050;-79
2021/04/13 05:19:37;;;;;;;9.45;0.90;;;;;;;12.57;62.33;100909.97;4939733;29;20055;-80
2021/04/13 05:22:22;;;;;;;0.57;0.30;;;;;;;12.70;61.52;100913.63;4943905;28;20055;-79
2021/04/13 05:25:07;;;;;;;4.85;0.32;;;;;;;12.79;63.11;100917.16;4957695;28;20417;-79
2021/04/13 05:27:53;;;;;;;1.42;0.63;;;;;;;12.85;63.75;100924.03;4941317;29;20050;-80
2021/04/13 05:30:37;;;;;;;;;;;;;;;12.91;63.64;100936.38;4943033;28;20054;-78
2021/04/13 05:33:23;;;;;;;0.65;0.32;;;;;;;12.89;62.27;100935.09;4952028;28;19923;-79
2021/04/13 05:36:09;;;;;;;4.72;0.60;;;;;;;12.84;60.68;100928.72;4954027;28;20105;-79
2021/04/13 05:38:54;;;;;;;0.63;0.45;;;;;;;12.72;59.25;100938.66;4957151;28;20046;-79
2021/04/13 05:41:39;;;;;;;0.75;0.40;;;;;;;12.45;52.83;100950.72;4960101;28;20046;-79
2021/04/13 05:44:24;;;;;;;1.60;0.70;;;;;;;12.56;55.77;100957.47;4955109;28;20050;-79
2021/04/13 05:47:08;;;;;;;0.95;0.52;;;;;;;12.56;56.73;100957.47;4958752;28;20046;-78
2021/04/13 05:49:54;;;;;;;1.30;0.70;;;;;;;12.61;55.30;100960.03;4955688;28;20050;-78
2021/04/13 05:52:39;;;;;;;;;;;;;;;12.63;56.43;100960.53;4954977;28;20042;-78
2021/04/13 05:55:24;;;;;;;2.42;0.40;;;;;;;12.50;54.13;100949.75;4956513;28;19914;-80
2021/04/13 05:58:16;;;;;;;0.63;0.43;;;;;;;12.36;53.22;100958.13;4958908;28;20511;-79
2021/04/13 06:01:05;;;;;;;2.53;0.73;;;;;;;12.18;50.81;100956.53;4938167;29;20059;-79
2021/04/13 06:03:50;;;;;;;3.03;0.63;;;;;;;12.22;51.11;100958.28;4943786;28;20054;-79
2021/04/13 06:06:35;;;;;;;2.97;2.05;;;;;;;12.27;46.91;100955.41;4937819;29;20054;-79
2021/04/13 06:09:21;;;;;;;7.95;4.28;;;;;;;12.42;44.08;100963.09;4939518;29;20075;-78
2021/04/13 06:12:06;;;;;;;5.55;3.35;;;;;;;12.31;44.67;100961.00;4943225;29;20510;-79
2021/04/13 06:14:54;;;;;;;3.45;2.05;;;;;;;12.14;45.42;100955.56;4941520;28;20047;-79
2021/04/13 06:17:39;;;;;;;2.05;1.40;;;;;;;12.24;43.32;100966.16;4954292;28;20051;-80
2021/04/13 06:20:26;;;;;;;2.10;0.85;;;;;;;12.25;42.27;100967.72;4943686;29;20050;-79
2021/04/13 06:23:11;;;;;;;4.82;0.93;;;;;;;12.21;43.14;100973.03;4953298;28;20046;-79
2021/04/13 06:25:56;;;;;;;2.45;0.82;;;;;;;12.24;44.13;100963.44;4937972;29;20046;-79
2021/04/13 06:28:41;;;;;;;;;;;;;;;12.28;42.92;100978.03;4943784;28;20050;-79
2021/04/13 06:31:28;;;;;;;4.17;0.83;;;;;;;12.08;41.47;100978.63;4959543;28;19915;-78
2021/04/13 06:34:13;;;;;;;1.90;1.50;;;;;;;12.10;41.87;100981.81;4938814;29;20050;-79
2021/04/13 06:36:58;;;;;;;3.20;0.50;;;;;;;12.07;42.37;100983.28;4952471;29;20046;-79
2021/04/13 06:39:43;;;;;;;0.95;0.88;;;;;;;12.05;42.58;100990.97;4956118;28;20054;-79
2021/04/13 06:42:46;;;;;;;0.85;0.47;;;;;;;11.99;42.79;100984.84;4953468;28;20047;-79
2021/04/13 06:45:46;;;;;;;9.50;0.95;;;;;;;12.08;42.55;101000.44;4954169;28;20047;-80
2021/04/13 06:48:47;;;;;;;3.33;0.60;;;;;;;11.99;42.61;101003.94;4953611;28;20047;-79
2021/04/13 06:51:59;;;;;;;0.40;0.40;;;;;;;12.00;43.79;100993.84;4956477;28;20042;-79
2021/04/13 06:55:03;;;;;;;6.25;1.63;;;;;;;12.12;45.08;101002.22;4953738;28;20042;-79
2021/04/13 06:58:00;;;;;;;2.10;1.33;;;;;;;12.22;51.36;101004.63;4951654;28;20059;-79
2021/04/13 07:01:12;;;;;;;5.32;1.70;;;;;;;12.20;55.60;101004.13;4940672;29;20522;-79
2021/04/13 07:04:03;;;;;;;3.13;1.27;;;;;;;12.28;57.15;101005.28;4950485;29;20046;-78
2021/04/13 07:07:06;;;;;;;2.15;1.48;;;;;;;12.14;58.64;101008.13;4937657;29;20039;-78
2021/04/13 07:10:06;;;;;;;3.58;2.20;;;;;;;12.24;59.42;101010.56;4951539;28;20042;-78
2021/04/13 07:12:54;;;;;;;3.33;1.90;;;;;;;12.37;59.57;101015.06;4953538;28;20043;-79
2021/04/13 07:15:46;;;;;;;4.53;2.55;;;;;;;12.38;59.58;101018.59;4951622;28;20051;-78
2021/04/13 07:19:08;;;;;;;4.22;3.22;;;;;;;12.33;60.03;101029.66;4935725;29;20046;-79
2021/04/13 07:22:15;;;;;;;6.60;3.40;;;;;;;12.32;60.42;101038.97;4948598;29;20571;-79
2021/04/13 07:25:03;;;;;;;4.50;3.03;;;;;;;12.43;60.58;101040.28;4967015;23;20050;31
2021/04/13 07:27:57;;;;;;;5.03;3.60;;;;;;;12.47;60.74;101043.16;4934052;29;20047;-79
2021/04/13 07:30:43;;;;;;;4.93;3.15;;;;;;;12.41;60.83;101047.97;4948666;28;20054;-79
2021/04/13 07:33:32;;;;;;;2.85;2.40;;;;;;;12.29;60.66;101051.31;4947364;28;20055;-79
2021/04/13 07:36:25;;;;;;;3.08;1.73;;;;;;;12.34;60.49;101053.09;4950257;28;20050;-79
2021/04/13 07:39:12;;;;;;;8.40;2.17;;;;;;;12.38;61.46;101056.78;4950921;28;20419;-80
2021/04/13 07:42:06;;;;;;;3.22;1.90;;;;;;;12.42;61.21;101065.94;4922561;29;20416;-80
2021/04/13 07:45:10;;;;;;;4.15;1.88;;;;;;;12.43;61.41;101073.81;4941550;28;20054;-80
2021/04/13 07:48:16;;;;;;;2.08;1.80;;;;;;;12.53;61.00;101074.63;4949435;28;20415;-79
2021/04/13 07:51:34;;;;;;;2.03;1.60;;;;;;;12.42;61.04;101074.91;4950367;28;20546;-80
2021/04/13 07:54:23;;;;;;;1.77;1.25;;;;;;;12.35;61.22;101079.22;4937467;28;20051;-79
2021/04/13 07:57:18;;;;;;;6.97;1.63;;;;;;;12.39;61.12;101082.94;4931701;29;20046;-79
2021/04/13 08:00:10;;;;;;;;;;;;;;;12.46;60.88;101093.38;4945077;28;20050;-79
2021/04/13 08:03:26;;;;;;;1.75;1.08;;;;;;;12.50;61.16;101088.88;4947255;28;20387;-79
2021/04/13 08:06:34;;;;;;;1.77;1.52;;;;;;;12.52;60.04;101103.81;4943409;28;20051;-79
2021/04/13 08:09:25;;;;;;;1.63;0.98;;;;;;;12.53;59.15;101108.16;4949396;28;20054;-79
2021/04/13 08:12:23;;;;;;;4.03;0.93;;;;;;;12.57;59.13;101111.84;4934865;29;20519;-81
2021/04/13 08:15:16;;;;;;;3.03;1.35;;;;;;;12.59;59.16;101115.06;4928992;28;20524;-80
2021/04/13 08:18:14;;;;;;;1.45;0.95;;;;;;;12.52;60.14;101120.19;4948342;28;20058;-81
2021/04/13 08:21:13;;;;;;;1.80;1.15;;;;;;;12.51;60.54;101125.94;4935283;29;20059;-80
2021/04/13 08:23:59;;;;;;;1.75;1.13;;;;;;;12.50;60.09;101122.41;4951871;28;20050;-79
2021/04/13 08:26:46;;;;;;;1.73;0.90;;;;;;;12.51;59.99;101134.13;4942795;29;20055;-79
2021/04/13 08:29:53;;;;;;;1.20;0.65;;;;;;;12.60;59.48;101132.22;4938292;29;20050;-79
2021/04/13 08:33:02;;;;;;;3.00;0.70;;;;;;;12.54;59.53;101144.44;4951136;28;20054;-80
2021/04/13 08:36:19;;;;;;;1.70;1.10;;;;;;;12.56;58.47;101142.97;4936932;29;20050;-80
2021/04/13 08:39:20;;;;;;;1.88;1.05;;;;;;;12.61;58.63;101153.72;4945862;28;20042;-80
2021/04/13 08:42:33;;;;;;;2.75;0.98;;;;;;;12.69;57.39;101150.25;4949550;28;20408;-79
2021/04/13 08:45:40;;;;;;;2.40;0.82;;;;;;;12.67;57.23;101155.19;4936857;29;20054;-79
2021/04/13 08:48:39;;;;;;;1.35;1.02;;;;;;;12.77;56.60;101159.53;4935976;29;20093;-79
2021/04/13 08:51:46;;;;;;;1.17;1.08;;;;;;;12.83;54.95;101175.47;4952883;28;20403;-79
2021/04/13 08:54:35;;;;;;;2.05;0.80;;;;;;;12.79;56.13;101176.41;4947824;29;20047;-80
2021/04/13 08:58:02;;;;;;;3.35;0.90;;;;;;;12.78;55.28;101183.78;4949042;29;20054;-79
2021/04/13 09:00:51;;;;;;;3.03;0.70;;;;;;;12.94;57.03;101180.59;4948789;28;20042;-79
2021/04/13 09:03:43;;;;;;;1.15;0.57;;;;;;;12.99;57.84;101188.63;4949876;28;20051;-79
2021/04/13 09:06:43;;;;;;;2.42;0.88;;;;;;;12.90;56.87;101187.84;4948920;28;20046;-79
2021/04/13 09:09:38;;;;;;;1.15;0.65;;;;;;;13.08;57.08;101200.38;4950409;28;20050;-79
2021/04/13 09:12:34;;;;;;;0.63;0.45;;;;;;;13.09;58.92;101197.31;4938795;29;20034;-80
2021/04/13 09:15:25;;;;;;;5.10;0.60;;;;;;;13.17;59.09;101206.66;4956467;28;20054;-79
2021/04/13 09:18:18;;;;;;;1.13;0.70;;;;;;;13.21;59.23;101207.63;4948525;29;20053;-79
2021/04/13 09:21:11;;;;;;;0.90;0.70;;;;;;;13.26;55.43;101210.19;4951063;28;20066;-79
2021/04/13 09:24:25;;;;;;;1.67;0.80;;;;;;;13.18;55.55;101209.09;4949082;28;20050;-80
2021/04/13 09:27:42;;;;;;;1.75;1.00;;;;;;;13.16;55.33;101218.72;4944873;29;20046;-79
2021/04/13 09:30:35;;;;;;;1.17;0.85;;;;;;;13.21;56.96;101219.34;4961484;28;20042;-79
2021/04/13 09:33:20;;;;;;;2.15;0.70;;;;;;;13.23;56.08;101221.78;4960460;28;20403;-79
2021/04/13 09:36:23;;;;;;;2.75;0.52;;;;;;;13.26;56.70;101232.84;4958670;28;20403;-78
2021/04/13 09:39:35;;;;;;;1.77;1.10;;;;;;;13.25;56.24;101233.19;4961573;28;20050;-79
2021/04/13 09:42:26;;;;;;;1.65;0.90;;;;;;;13.10;55.56;101239.09;4957057;28;20050;-79
2021/04/13 09:45:21;;;;;;;4.20;0.80;;;;;;;12.89;55.87;101240.81;4961474;28;20070;-80
2021/04/13 09:48:18;;;;;;;1.85;0.70;;;;;;;12.89;55.88;101238.09;4959556;28;20062;-79
2021/04/13 09:51:12;;;;;;;4.25;0.88;;;;;;;12.83;54.85;101235.50;4949134;28;20074;-79
2021/04/13 09:54:30;;;;;;;1.38;0.93;;;;;;;12.90;55.31;101245.16;4946798;29;20050;-78
2021/04/13 09:57:25;;;;;;;1.88;0.82;;;;;;;12.75;55.94;101238.19;4957562;29;20109;-78
2021/04/13 10:00:31;;;;;;;0.85;0.65;;;;;;;12.82;56.03;101242.06;4960980;28;20116;-78
2021/04/13 10:03:33;;;;;;;1.67;0.80;;;;;;;12.85;55.78;101244.16;4959863;28;20051;-79
2021/04/13 10:06:26;;;;;;;1.60;0.75;;;;;;;12.75;55.50;101244.44;4961950;28;20523;-79
2021/04/13 10:09:24;;;;;;;1.38;0.80;;;;;;;12.69;55.94;101245.75;4960547;28;20058;-79
2021/04/13 10:12:34;;;;;;;1.15;0.82;;;;;;;12.60;55.82;101239.44;4961117;28;20046;-80
2021/04/13 10:15:34;;;;;;;2.72;0.77;;;;;;;12.61;54.60;101238.31;4957298;28;20054;-79
2021/04/13 10:18:52;;;;;;;1.67;0.82;;;;;;;12.66;55.04;101240.09;4962692;28;20066;-79
2021/04/13 10:21:48;;;;;;;3.42;1.05;;;;;;;12.49;56.34;101240.03;4925721;29;20055;-79
2021/04/13 10:24:42;;;;;;;3.33;0.70;;;;;;;12.39;56.74;101241.13;4953072;28;20050;-79
2021/04/13 10:28:01;;;;;;;3.42;0.90;;;;;;;12.32;56.71;101251.66;4921522;29;20051;-79
2021/04/13 10:31:05;;;;;;;1.55;0.63;;;;;;;12.44;56.74;101257.34;4928611;29;20043;-79
2021/04/13 10:34:10;;;;;;;1.67;0.68;;;;;;;12.29;55.96;101255.81;4941586;29;20038;-80
2021/04/13 10:37:49;;;;;;;1.08;0.50;;;;;;;12.34;55.52;101249.44;4939017;29;20058;-79
2021/04/13 10:41:11;;;;;;;2.67;0.90;;;;;;;12.40;56.86;101248.16;4938621;29;20042;-79
2021/04/13 10:44:14;;;;;;;1.30;1.20;;;;;;;12.36;60.72;101241.75;4936014;29;20562;-79
2021/04/13 10:47:27;;;;;;;1.10;0.93;;;;;;;12.32;61.42;101246.22;4936956;29;20051;-78
2021/04/13 10:50:33;;;;;;;1.48;0.95;;;;;;;12.33;60.64;101242.38;4946301;29;20120;-79
2021/04/13 10:53:41;;;;;;;0.98;0.88;;;;;;;12.39;60.70;101246.59;4944217;29;20047;-79
2021/04/13 10:56:35;;;;;;;0.80;0.80;;;;;;;12.25;61.00;101246.66;4924815;29;20047;-78
2021/04/13 10:59:48;;;;;;;1.67;0.73;;;;;;;12.37;58.71;101254.25;4939212;29;20054;-79
2021/04/13 11:03:10;;;;;;;1.42;0.70;;;;;;;12.48;59.08;101246.63;4939345;29;20051;-78
2021/04/13 11:06:16;;;;;;;3.13;1.17;;;;;;;13.49;53.85;101255.38;4925320;29;20058;-81
2021/04/13 11:09:12;;;;;;;0.90;0.70;;;;;;;13.93;51.57;101256.94;4936198;28;20050;-81
2021/04/13 11:11:59;;;;;;;1.40;0.88;;;;;;;14.96;49.08;101256.59;4932628;28;20047;-82
2021/04/13 11:14:50;;;;;;;1.15;0.70;;;;;;;15.15;47.62;101263.56;4939156;29;20055;-80
2021/04/13 11:17:50;;;;;;;0.70;0.70;;;;;;;15.72;46.12;101261.84;4938804;29;20046;-82
2021/04/13 11:21:12;;;;;;;1.40;0.70;;;;;;;16.78;40.72;101269.44;4941684;29;20404;-82
2021/04/13 11:24:41;;;;;;;4.20;0.77;;;;;;;15.40;44.55;101263.38;4943041;29;20515;-81
2021/04/13 11:27:48;;;;;;;1.00;0.65;;;;;;;15.89;41.98;101260.09;4938866;29;20071;-81
2021/04/13 11:31:14;;;;;;;0.90;0.80;;;;;;;14.60;46.22;101269.16;4933461;29;20066;-81
2021/04/13 11:34:20;;;;;;;2.70;1.10;;;;;;;14.46;46.56;101267.47;4934346;29;20051;-80
2021/04/13 11:37:31;;;;;;;1.25;0.68;;;;;;;14.97;45.52;101262.88;4931527;29;20047;-81
2021/04/13 11:40:49;;;;;;;1.00;0.90;;;;;;;14.36;45.84;101265.09;4934554;29;20522;-82
2021/04/13 11:43:43;;;;;;;1.25;0.68;;;;;;;14.74;43.70;101264.28;4936217;28;20050;-81
2021/04/13 11:46:41;;;;;;;4.32;0.73;;;;;;;14.13;46.53;101260.91;4947701;28;20054;-82
2021/04/13 11:49:36;;;;;;;3.78;0.75;;;;;;;13.10;46.62;101247.28;4945667;28;20448;-82
2021/04/13 11:52:39;;;;;;;0.68;0.60;;;;;;;13.75;46.02;101249.09;4945370;28;20047;-81
2021/04/13 11:55:28;;;;;;;1.05;0.90;;;;;;;14.13;44.84;101255.44;4932502;29;20046;-80
2021/04/13 11:58:24;;;;;;;0.80;0.70;;;;;;;14.04;45.27;101249.19;4936812;28;20054;-79
2021/04/13 12:01:12;;;;;;;0.70;0.70;;;;;;;13.46;46.71;101245.06;4947929;28;20046;-81
2021/04/13 12:04:06;;;;;;;1.38;0.70;;;;;;;12.95;48.02;101243.09;4933639;29;20058;-81
2021/04/13 12:06:56;;;;;;;0.60;0.60;;;;;;;13.38;46.42;101245.06;4941290;28;20047;-82
2021/04/13 12:09:44;;;;;;;4.53;0.77;;;;;;;13.17;48.47;101242.16;4938635;29;20054;-79
2021/04/13 12:12:35;;;;;;;1.27;0.95;;;;;;;13.21;49.21;101240.41;4948317;28;20042;-81
2021/04/13 12:15:20;;;;;;;0.95;0.82;;;;;;;13.45;48.37;101238.03;4941669;29;20058;-81
2021/04/13 12:18:36;;;;;;;1.65;1.00;;;;;;;13.75;46.51;101246.34;4929250;29;20047;-80
2021/04/13 12:21:25;;;;;;;0.90;0.65;;;;;;;14.31;44.22;101245.28;4930198;29;20059;-80
2021/04/13 12:24:41;;;;;;;1.23;0.77;;;;;;;14.17;45.11;101250.16;4925793;29;20047;-80
2021/04/13 12:27:26;;;;;;;0.60;0.60;;;;;;;15.06;43.78;101244.44;4920479;29;20054;-80
2021/04/13 12:30:32;;;;;;;1.88;0.70;;;;;;;17.72;36.13;101247.97;4911315;29;20050;-85
2021/04/13 12:33:25;;;;;;;1.15;0.70;;;;;;;21.11;29.83;101251.75;4931539;29;20070;-84
2021/04/13 12:36:10;;;;;;;0.85;0.77;;;;;;;22.54;27.63;101257.78;4937939;29;20051;-84
2021/04/13 12:38:58;;;;;;;4.00;1.27;;;;;;;23.95;24.51;101249.50;4927813;29;20051;-83
2021/04/13 12:41:56;;;;;;;1.30;0.50;;;;;;;20.64;29.05;101251.41;4931150;29;20416;-84
2021/04/13 12:44:41;;;;;;;1.00;0.68;;;;;;;19.08;33.11;101251.88;4932850;29;20054;-84
2021/04/13 12:47:33;;;;;;;;;;;;;;;20.19;31.68;101247.47;4927545;29;20415;-84
2021/04/13 12:50:32;;;;;;;1.15;0.68;;;;;;;19.73;33.11;101241.06;4927338;29;19915;-84
2021/04/13 12:53:24;;;;;;;4.50;0.65;;;;;;;17.49;37.08;101242.97;4934571;29;20511;-84
2021/04/13 12:56:13;;;;;;;1.30;1.20;;;;;;;15.45;42.74;101231.41;4924790;29;20055;-84
2021/04/13 12:59:17;;;;;;;1.67;0.88;;;;;;;14.19;47.03;101226.00;4940460;29;20047;-83
2021/04/13 13:02:05;;;;;;;1.10;0.73;;;;;;;14.13;47.61;101233.56;4926907;29;20058;-83
2021/04/13 13:04:50;;;;;;;5.57;0.85;;;;;;;13.57;49.78;101220.97;4940360;29;20058;-83
2021/04/13 13:07:35;;;;;;;0.82;0.82;;;;;;;13.50;52.26;101231.59;4929326;29;20062;-84
2021/04/13 13:10:31;;;;;;;0.95;0.73;;;;;;;13.14;53.56;101223.69;4927615;29;20051;-83
2021/04/13 13:13:27;;;;;;;1.10;0.90;;;;;;;12.97;54.11;101215.44;4926655;29;20444;-84
2021/04/13 13:16:13;;;;;;;;;;;;;;;12.90;53.66;101226.81;4937392;29;20051;-84
2021/04/13 13:19:02;;;;;;;;;;;;;;;13.15;53.79;101225.31;4942254;29;19915;-84
2021/04/13 13:21:51;;;;;;;4.28;1.30;;;;;;;13.25;52.30;101225.00;4927986;29;19915;-83
2021/04/13 13:24:36;;;;;;;3.00;0.90;;;;;;;13.94;49.75;101224.94;4928746;29;20050;-83
2021/04/13 13:27:29;;;;;;;3.28;1.00;;;;;;;13.97;48.94;101219.59;4923716;29;20055;-83
2021/04/13 13:30:17;;;;;;;1.15;1.00;;;;;;;14.58;46.89;101216.72;4923754;29;20056;-82
2021/04/13 13:33:08;;;;;;;2.03;0.90;;;;;;;14.59;46.93;101221.03;4943557;29;20046;-83
2021/04/13 13:35:57;;;;;;;1.00;0.90;;;;;;;14.45;47.50;101224.81;4934475;28;20050;-84
2021/04/13 13:38:45;;;;;;;0.90;0.90;;;;;;;13.84;49.33;101222.53;4954233;28;20059;-82
2021/04/13 13:41:35;;;;;;;1.08;0.90;;;;;;;15.54;43.98;101221.22;4925745;29;20051;-84